Eurodam — PHOS — position and weather

sailwx.info

Track history (hours):
 
Tides and Currents Weather Stations Pressure Air Temp Water Temp Dewpoint Dewpoint Depression Visibility Wind Speed Wind Dir Waves Ship Positions

Eurodam (Netherlands)

Last reported at 2018-Jun-19 16:30 UTC. Time now 2018-Jun-19 20:03 UTC.
Position N 58°47' W 136°23'.

Length 287 m; draft 8 m.

Type: Ship. MMSI: 245206000.

Date/timePositionNaut miles runAvg speedWind from/ knotsBaromVisibWave heightAir tempDewpointWater temp
2018-Jun-19 16:30N 58°47' W 136°23'917.4
2018-Jun-19 16:00N 58°41' W 136°11'816.5
2018-Jun-19 15:30N 58°34' W 136°04'815.7
2018-Jun-19 15:00N 58°26' W 135°59'510.4
2018-Jun-19 14:30N 58°21' W 135°57'612.5
2018-Jun-19 14:00N 58°18' W 135°47'713.4
2018-Jun-19 13:30N 58°16' W 135°35'713.2
2018-Jun-19 12:56N 58°13' W 135°22'1314.4
2018-Jun-19 12:00N 58°06' W 135°00'14 4.7 290 / 101020.710.8 16.313.0 9.0
2018-Jun-19 09:00N 58°12' W 134°36'218 8.7 310 / 21020.710.8 16.313.0 9.0
2018-Jun-18 08:00N 54°36' W 133°48'14120.2 320 / 201023.9 2.2 11.411.110.8
2018-Jun-18 01:00N 52°30' W 132°00'16719.9 320 / 301021.9 0.0 12.811.714.8
2018-Jun-17 16:34N 50°28' W 128°57'1020.6
2018-Jun-17 16:05N 50°21' W 128°44'2919.1
2018-Jun-17 14:35N 50°04' W 128°09'4719.6
2018-Jun-17 12:12N 49°35' W 127°12'520.0
2018-Jun-17 11:58N 49°32' W 127°07'1120.9
2018-Jun-17 11:27N 49°25' W 126°54'920.5
2018-Jun-17 11:00N 49°19' W 126°42'1020.4
2018-Jun-17 10:30N 49°13' W 126°30'1020.3
2018-Jun-17 10:00N 49°08' W 126°17'4251.9
2018-Jun-17 10:00N 49°06' W 126°12'713.3 350 / 81015.510.8 14.612.810.2
2018-Jun-17 09:30N 49°02' W 126°04'1020.3
2018-Jun-17 09:01N 48°56' W 125°52'1020.6
2018-Jun-17 08:31N 48°50' W 125°39'1020.8
2018-Jun-17 08:01N 48°45' W 125°25'3177.4
2018-Jun-17 08:00N 48°42' W 125°24'917.6 320 / 161015.510.8 14.612.810.2
2018-Jun-17 07:31N 48°40' W 125°12'1121.2
2018-Jun-17 07:00N 48°34' W 124°58'1121.8
2018-Jun-17 06:31N 48°30' W 124°43'1121.6
2018-Jun-17 06:00N 48°26' W 124°27'1121.5
2018-Jun-17 05:30N 48°22' W 124°12'1021.0
2018-Jun-17 05:00N 48°18' W 123°58'1021.0
2018-Jun-17 04:31N 48°16' W 123°42'1219.9
2018-Jun-17 03:55N 48°13' W 123°25'2815.2
2018-Jun-17 02:05N 48°10' W 122°44'215.5
2018-Jun-17 01:58N 48°08' W 122°42'715.9
2018-Jun-17 01:30N 48°02' W 122°37'917.0
2018-Jun-17 01:00N 47°55' W 122°30'1019.5
2018-Jun-17 00:30N 47°45' W 122°26'916.8
2018-Jun-16 23:59N 47°37' W 122°26'2 3.8
2018-Jun-16 23:28N 47°38' W 122°23'0 0.0
2018-Jun-16 22:58N 47°38' W 122°23'0 0.0
2018-Jun-16 22:28N 47°38' W 122°23'0 0.0
2018-Jun-16 21:58N 47°38' W 122°23'0 0.0
2018-Jun-16 21:28N 47°38' W 122°23'0 0.0
2018-Jun-16 20:58N 47°38' W 122°23'0 0.0
2018-Jun-16 20:28N 47°38' W 122°23'0 0.0
2018-Jun-16 19:58N 47°38' W 122°23'0 0.0
2018-Jun-16 19:28N 47°38' W 122°23'0 0.0
2018-Jun-16 18:58N 47°38' W 122°23'0 0.0
2018-Jun-16 18:25N 47°38' W 122°23'0 0.0
2018-Jun-16 17:58N 47°38' W 122°23'0 0.0
2018-Jun-16 17:28N 47°38' W 122°23'0 0.0
2018-Jun-16 16:58N 47°38' W 122°23'0 0.0
2018-Jun-16 16:28N 47°38' W 122°23'0 0.0
2018-Jun-16 15:55N 47°38' W 122°23'0 0.0
2018-Jun-16 15:28N 47°38' W 122°23'0 0.0
2018-Jun-16 14:58N 47°38' W 122°23'0 0.0
2018-Jun-16 14:28N 47°38' W 122°23'0 0.0
2018-Jun-16 13:58N 47°38' W 122°23'0 0.0
2018-Jun-16 13:28N 47°38' W 122°23'0 0.0
2018-Jun-16 13:00N 47°38' W 122°23'0 0.0
2018-Jun-16 12:30N 47°38' W 122°23'1 2.7
2018-Jun-16 12:00N 47°37' W 122°25'612.6
2018-Jun-16 11:30N 47°43' W 122°28'815.3
2018-Jun-16 11:00N 47°51' W 122°28'713.9
2018-Jun-16 10:29N 47°57' W 122°34'715.1
2018-Jun-16 10:00N 48°03' W 122°39'4269.5
2018-Jun-16 10:00N 48°00' W 122°36'1221.8 300 / 181020.410.8 12.511.210.3
2018-Jun-16 09:26N 48°10' W 122°46'715.2
2018-Jun-16 08:59N 48°11' W 122°56'714.8
2018-Jun-16 08:30N 48°12' W 123°07'815.0
2018-Jun-16 08:00N 48°11' W 123°18'11 8.7
2018-Jun-16 06:41N 48°21' W 123°26'3 9.0
2018-Jun-16 06:21N 48°24' W 123°24'1 0.2
2018-Jun-16 00:40N 48°25' W 123°23'1 3.1
2018-Jun-16 00:18N 48°24' W 123°25'413.3
2018-Jun-15 23:59N 48°20' W 123°24'915.8
2018-Jun-15 23:23N 48°14' W 123°34'818.6
2018-Jun-15 22:59N 48°14' W 123°45'919.7
2018-Jun-15 22:30N 48°15' W 123°59'1123.0
2018-Jun-15 22:00N 48°20' W 124°15'1122.1
2018-Jun-15 21:30N 48°24' W 124°30'1121.2
2018-Jun-15 21:00N 48°29' W 124°45'1121.1
2018-Jun-15 20:30N 48°29' W 125°01'1019.8
2018-Jun-15 20:00N 48°30' W 125°15'1020.8
2018-Jun-15 19:30N 48°37' W 125°27'1121.5
2018-Jun-15 19:00N 48°44' W 125°40'1121.4
2018-Jun-15 18:30N 48°51' W 125°52'1121.2
2018-Jun-15 18:00N 48°58' W 126°04'1121.3
2018-Jun-15 17:30N 49°05' W 126°16'1121.8
2018-Jun-15 17:00N 49°12' W 126°29'1121.7
2018-Jun-15 16:30N 49°20' W 126°41'1121.8
2018-Jun-15 16:00N 49°27' W 126°54'1222.3
2018-Jun-15 15:27N 49°35' W 127°08'7021.9
2018-Jun-15 12:16N 50°26' W 128°22'621.9
2018-Jun-15 11:58N 50°31' W 128°28'1022.1
2018-Jun-15 11:31N 50°40' W 128°37'1122.6
2018-Jun-15 11:01N 50°50' W 128°46'1223.0
2018-Jun-15 10:31N 50°60' W 128°54'1122.6
2018-Jun-15 10:00N 51°10' W 129°02'1020.9
2018-Jun-15 09:30N 51°19' W 129°09'1021.0
2018-Jun-15 09:00N 51°29' W 129°17'6391.9
2018-Jun-15 09:00N 51°24' W 129°12'1633.4 320 / 111020.410.8 12.511.210.3
2018-Jun-15 08:30N 51°38' W 129°25'1020.7
2018-Jun-15 08:00N 51°47' W 129°33'2421.0
2018-Jun-15 06:52N 52°09' W 129°49'7721.7
2018-Jun-15 03:18N 53°19' W 130°42'722.3
2018-Jun-15 03:00N 53°25' W 130°47'1122.5
2018-Jun-15 02:30N 53°36' W 130°51'1122.5
2018-Jun-15 02:00N 53°47' W 130°55'1122.4
2018-Jun-15 01:30N 53°58' W 130°59'1121.9
2018-Jun-15 01:00N 54°09' W 131°03'3212.9
2018-Jun-15 01:00N 54°06' W 131°00'1428.3 280 / 361018.610.8 12.5 8.010.3
2018-Jun-15 00:30N 54°19' W 131°07'1121.5
2018-Jun-15 00:00N 54°28' W 131°17'1122.3
2018-Jun-14 23:30N 54°38' W 131°27'271 6.0
2018-Jun-13 02:08N 58°18' W 136°14'211.7
2018-Jun-13 01:58N 58°18' W 136°10'510.9
2018-Jun-13 01:31N 58°21' W 136°02'510.2
2018-Jun-13 01:00N 58°26' W 135°59'714.3
2018-Jun-13 00:30N 58°33' W 136°04'816.2
2018-Jun-13 00:00N 58°41' W 136°05'918.4
2018-Jun-12 23:30N 58°46' W 136°20'6 0.9
2018-Jun-12 16:53N 58°50' W 136°30'513.8
2018-Jun-12 16:31N 58°47' W 136°22'917.9
2018-Jun-12 16:01N 58°40' W 136°10'817.0
2018-Jun-12 15:31N 58°32' W 136°04'815.3
2018-Jun-12 15:01N 58°25' W 135°58'5 9.8
2018-Jun-12 14:30N 58°20' W 135°56'5 9.3
2018-Jun-12 14:00N 58°19' W 135°48'612.1
2018-Jun-12 13:30N 58°17' W 135°37'5 9.8
2018-Jun-12 13:00N 58°15' W 135°29'713.3
2018-Jun-12 12:29N 58°12' W 135°17'178 6.5
2018-Jun-11 09:00N 55°18' W 134°12'5016.6 280 / 221018.2 10.5 7.210.0
2018-Jun-11 06:00N 54°30' W 133°48'39819.9 280 / 221018.0 10.5 7.210.0
2018-Jun-10 10:00N 49°24' W 126°54'1619.4 070 / 171015.0 11.7 7.010.0
2018-Jun-10 09:09N 49°15' W 126°33'422.9
2018-Jun-10 09:00N 49°12' W 126°30'1168.5 260 / 41015.1 11.7 7.010.0
2018-Jun-10 08:59N 49°13' W 126°29'1020.9
2018-Jun-10 08:30N 49°07' W 126°16'1021.0
2018-Jun-10 08:00N 49°01' W 126°03'1020.9
2018-Jun-10 07:30N 48°55' W 125°50'1020.7
2018-Jun-10 07:01N 48°49' W 125°37'1020.7
2018-Jun-10 06:30N 48°44' W 125°24'1121.0
2018-Jun-10 06:00N 48°39' W 125°10'1020.9
2018-Jun-10 05:31N 48°34' W 124°56'1020.4
2018-Jun-10 05:01N 48°30' W 124°42'1020.4
2018-Jun-10 04:31N 48°26' W 124°28'1020.5
2018-Jun-10 04:00N 48°22' W 124°13'1020.7
2018-Jun-10 03:30N 48°18' W 123°59'4817.9
2018-Jun-10 00:50N 48°11' W 122°48'922.3
2018-Jun-10 00:27N 48°05' W 122°39'1022.2
2018-Jun-10 00:00N 47°57' W 122°32'1121.3
2018-Jun-09 23:30N 47°47' W 122°26'918.3
2018-Jun-09 23:00N 47°38' W 122°26'2 3.3
2018-Jun-09 22:29N 47°38' W 122°23'0 0.0
2018-Jun-09 21:59N 47°38' W 122°23'0 0.0
2018-Jun-09 21:29N 47°38' W 122°23'0 0.0
2018-Jun-09 20:59N 47°38' W 122°23'0 0.0
2018-Jun-09 20:29N 47°38' W 122°23'0 0.0
2018-Jun-09 19:59N 47°38' W 122°23'0 0.0
2018-Jun-09 19:29N 47°38' W 122°23'0 0.0
2018-Jun-09 18:59N 47°38' W 122°23'0 0.0
2018-Jun-09 18:29N 47°38' W 122°23'0 0.0
2018-Jun-09 17:59N 47°38' W 122°23'0 0.0
2018-Jun-09 17:29N 47°38' W 122°23'0 0.0
2018-Jun-09 16:59N 47°38' W 122°23'  
Track history (hours):
 
Tides and Currents Weather Stations Pressure Air Temp Water Temp Dewpoint Dewpoint Depression Visibility Wind Speed Wind Dir Waves Ship Positions

Eurodam (Netherlands)

Last reported at 2018-Jun-19 16:30 UTC. Time now 2018-Jun-19 20:03 UTC.
Position N 58°47' W 136°23'.

Length 287 m; draft 8 m.

Type: Ship. MMSI: 245206000.

Date/timePositionNaut miles runAvg speedWind from/ knotsBaromVisibWave heightAir tempDewpointWater temp
2018-Jun-19 16:30N 58°47' W 136°23'917.4
2018-Jun-19 16:00N 58°41' W 136°11'816.5
2018-Jun-19 15:30N 58°34' W 136°04'815.7
2018-Jun-19 15:00N 58°26' W 135°59'510.4
2018-Jun-19 14:30N 58°21' W 135°57'612.5
2018-Jun-19 14:00N 58°18' W 135°47'713.4
2018-Jun-19 13:30N 58°16' W 135°35'713.2
2018-Jun-19 12:56N 58°13' W 135°22'1314.4
2018-Jun-19 12:00N 58°06' W 135°00'14 4.7 290 / 101020.710.8 16.313.0 9.0
2018-Jun-19 09:00N 58°12' W 134°36'218 8.7 310 / 21020.710.8 16.313.0 9.0
2018-Jun-18 08:00N 54°36' W 133°48'14120.2 320 / 201023.9 2.2 11.411.110.8
2018-Jun-18 01:00N 52°30' W 132°00'16719.9 320 / 301021.9 0.0 12.811.714.8
2018-Jun-17 16:34N 50°28' W 128°57'1020.6
2018-Jun-17 16:05N 50°21' W 128°44'2919.1
2018-Jun-17 14:35N 50°04' W 128°09'4719.6
2018-Jun-17 12:12N 49°35' W 127°12'520.0
2018-Jun-17 11:58N 49°32' W 127°07'1120.9
2018-Jun-17 11:27N 49°25' W 126°54'920.5
2018-Jun-17 11:00N 49°19' W 126°42'1020.4
2018-Jun-17 10:30N 49°13' W 126°30'1020.3
2018-Jun-17 10:00N 49°08' W 126°17'4251.9
2018-Jun-17 10:00N 49°06' W 126°12'713.3 350 / 81015.510.8 14.612.810.2
2018-Jun-17 09:30N 49°02' W 126°04'1020.3
2018-Jun-17 09:01N 48°56' W 125°52'1020.6
2018-Jun-17 08:31N 48°50' W 125°39'1020.8
2018-Jun-17 08:01N 48°45' W 125°25'3177.4
2018-Jun-17 08:00N 48°42' W 125°24'917.6 320 / 161015.510.8 14.612.810.2
2018-Jun-17 07:31N 48°40' W 125°12'1121.2
2018-Jun-17 07:00N 48°34' W 124°58'1121.8
2018-Jun-17 06:31N 48°30' W 124°43'1121.6
2018-Jun-17 06:00N 48°26' W 124°27'1121.5
2018-Jun-17 05:30N 48°22' W 124°12'1021.0
2018-Jun-17 05:00N 48°18' W 123°58'1021.0
2018-Jun-17 04:31N 48°16' W 123°42'1219.9
2018-Jun-17 03:55N 48°13' W 123°25'2815.2
2018-Jun-17 02:05N 48°10' W 122°44'215.5
2018-Jun-17 01:58N 48°08' W 122°42'715.9
2018-Jun-17 01:30N 48°02' W 122°37'917.0
2018-Jun-17 01:00N 47°55' W 122°30'1019.5
2018-Jun-17 00:30N 47°45' W 122°26'916.8
2018-Jun-16 23:59N 47°37' W 122°26'2 3.8
2018-Jun-16 23:28N 47°38' W 122°23'0 0.0
2018-Jun-16 22:58N 47°38' W 122°23'0 0.0
2018-Jun-16 22:28N 47°38' W 122°23'0 0.0
2018-Jun-16 21:58N 47°38' W 122°23'0 0.0
2018-Jun-16 21:28N 47°38' W 122°23'0 0.0
2018-Jun-16 20:58N 47°38' W 122°23'0 0.0
2018-Jun-16 20:28N 47°38' W 122°23'0 0.0
2018-Jun-16 19:58N 47°38' W 122°23'0 0.0
2018-Jun-16 19:28N 47°38' W 122°23'0 0.0
2018-Jun-16 18:58N 47°38' W 122°23'0 0.0
2018-Jun-16 18:25N 47°38' W 122°23'0 0.0
2018-Jun-16 17:58N 47°38' W 122°23'0 0.0
2018-Jun-16 17:28N 47°38' W 122°23'0 0.0
2018-Jun-16 16:58N 47°38' W 122°23'0 0.0
2018-Jun-16 16:28N 47°38' W 122°23'0 0.0
2018-Jun-16 15:55N 47°38' W 122°23'0 0.0
2018-Jun-16 15:28N 47°38' W 122°23'0 0.0
2018-Jun-16 14:58N 47°38' W 122°23'0 0.0
2018-Jun-16 14:28N 47°38' W 122°23'0 0.0
2018-Jun-16 13:58N 47°38' W 122°23'0 0.0
2018-Jun-16 13:28N 47°38' W 122°23'0 0.0
2018-Jun-16 13:00N 47°38' W 122°23'0 0.0
2018-Jun-16 12:30N 47°38' W 122°23'1 2.7
2018-Jun-16 12:00N 47°37' W 122°25'612.6
2018-Jun-16 11:30N 47°43' W 122°28'815.3
2018-Jun-16 11:00N 47°51' W 122°28'713.9
2018-Jun-16 10:29N 47°57' W 122°34'715.1
2018-Jun-16 10:00N 48°03' W 122°39'4269.5
2018-Jun-16 10:00N 48°00' W 122°36'1221.8 300 / 181020.410.8 12.511.210.3
2018-Jun-16 09:26N 48°10' W 122°46'715.2
2018-Jun-16 08:59N 48°11' W 122°56'714.8
2018-Jun-16 08:30N 48°12' W 123°07'815.0
2018-Jun-16 08:00N 48°11' W 123°18'11 8.7
2018-Jun-16 06:41N 48°21' W 123°26'3 9.0
2018-Jun-16 06:21N 48°24' W 123°24'1 0.2
2018-Jun-16 00:40N 48°25' W 123°23'1 3.1
2018-Jun-16 00:18N 48°24' W 123°25'413.3
2018-Jun-15 23:59N 48°20' W 123°24'915.8
2018-Jun-15 23:23N 48°14' W 123°34'818.6
2018-Jun-15 22:59N 48°14' W 123°45'919.7
2018-Jun-15 22:30N 48°15' W 123°59'1123.0
2018-Jun-15 22:00N 48°20' W 124°15'1122.1
2018-Jun-15 21:30N 48°24' W 124°30'1121.2
2018-Jun-15 21:00N 48°29' W 124°45'1121.1
2018-Jun-15 20:30N 48°29' W 125°01'1019.8
2018-Jun-15 20:00N 48°30' W 125°15'1020.8
2018-Jun-15 19:30N 48°37' W 125°27'1121.5
2018-Jun-15 19:00N 48°44' W 125°40'1121.4
2018-Jun-15 18:30N 48°51' W 125°52'1121.2
2018-Jun-15 18:00N 48°58' W 126°04'1121.3
2018-Jun-15 17:30N 49°05' W 126°16'1121.8
2018-Jun-15 17:00N 49°12' W 126°29'1121.7
2018-Jun-15 16:30N 49°20' W 126°41'1121.8
2018-Jun-15 16:00N 49°27' W 126°54'1222.3
2018-Jun-15 15:27N 49°35' W 127°08'7021.9
2018-Jun-15 12:16N 50°26' W 128°22'621.9
2018-Jun-15 11:58N 50°31' W 128°28'1022.1
2018-Jun-15 11:31N 50°40' W 128°37'1122.6
2018-Jun-15 11:01N 50°50' W 128°46'1223.0
2018-Jun-15 10:31N 50°60' W 128°54'1122.6
2018-Jun-15 10:00N 51°10' W 129°02'1020.9
2018-Jun-15 09:30N 51°19' W 129°09'1021.0
2018-Jun-15 09:00N 51°29' W 129°17'6391.9
2018-Jun-15 09:00N 51°24' W 129°12'1633.4 320 / 111020.410.8 12.511.210.3
2018-Jun-15 08:30N 51°38' W 129°25'1020.7
2018-Jun-15 08:00N 51°47' W 129°33'2421.0
2018-Jun-15 06:52N 52°09' W 129°49'7721.7
2018-Jun-15 03:18N 53°19' W 130°42'722.3
2018-Jun-15 03:00N 53°25' W 130°47'1122.5
2018-Jun-15 02:30N 53°36' W 130°51'1122.5
2018-Jun-15 02:00N 53°47' W 130°55'1122.4
2018-Jun-15 01:30N 53°58' W 130°59'1121.9
2018-Jun-15 01:00N 54°09' W 131°03'3212.9
2018-Jun-15 01:00N 54°06' W 131°00'1428.3 280 / 361018.610.8 12.5 8.010.3
2018-Jun-15 00:30N 54°19' W 131°07'1121.5
2018-Jun-15 00:00N 54°28' W 131°17'1122.3
2018-Jun-14 23:30N 54°38' W 131°27'271 6.0
2018-Jun-13 02:08N 58°18' W 136°14'211.7
2018-Jun-13 01:58N 58°18' W 136°10'510.9
2018-Jun-13 01:31N 58°21' W 136°02'510.2
2018-Jun-13 01:00N 58°26' W 135°59'714.3
2018-Jun-13 00:30N 58°33' W 136°04'816.2
2018-Jun-13 00:00N 58°41' W 136°05'918.4
2018-Jun-12 23:30N 58°46' W 136°20'6 0.9
2018-Jun-12 16:53N 58°50' W 136°30'513.8
2018-Jun-12 16:31N 58°47' W 136°22'917.9
2018-Jun-12 16:01N 58°40' W 136°10'817.0
2018-Jun-12 15:31N 58°32' W 136°04'815.3
2018-Jun-12 15:01N 58°25' W 135°58'5 9.8
2018-Jun-12 14:30N 58°20' W 135°56'5 9.3
2018-Jun-12 14:00N 58°19' W 135°48'612.1
2018-Jun-12 13:30N 58°17' W 135°37'5 9.8
2018-Jun-12 13:00N 58°15' W 135°29'713.3
2018-Jun-12 12:29N 58°12' W 135°17'178 6.5
2018-Jun-11 09:00N 55°18' W 134°12'5016.6 280 / 221018.2 10.5 7.210.0
2018-Jun-11 06:00N 54°30' W 133°48'39819.9 280 / 221018.0 10.5 7.210.0
2018-Jun-10 10:00N 49°24' W 126°54'1619.4 070 / 171015.0 11.7 7.010.0
2018-Jun-10 09:09N 49°15' W 126°33'422.9
2018-Jun-10 09:00N 49°12' W 126°30'1168.5 260 / 41015.1 11.7 7.010.0
2018-Jun-10 08:59N 49°13' W 126°29'1020.9
2018-Jun-10 08:30N 49°07' W 126°16'1021.0
2018-Jun-10 08:00N 49°01' W 126°03'1020.9
2018-Jun-10 07:30N 48°55' W 125°50'1020.7
2018-Jun-10 07:01N 48°49' W 125°37'1020.7
2018-Jun-10 06:30N 48°44' W 125°24'1121.0
2018-Jun-10 06:00N 48°39' W 125°10'1020.9
2018-Jun-10 05:31N 48°34' W 124°56'1020.4
2018-Jun-10 05:01N 48°30' W 124°42'1020.4
2018-Jun-10 04:31N 48°26' W 124°28'1020.5
2018-Jun-10 04:00N 48°22' W 124°13'1020.7
2018-Jun-10 03:30N 48°18' W 123°59'4817.9
2018-Jun-10 00:50N 48°11' W 122°48'922.3
2018-Jun-10 00:27N 48°05' W 122°39'1022.2
2018-Jun-10 00:00N 47°57' W 122°32'1121.3
2018-Jun-09 23:30N 47°47' W 122°26'918.3
2018-Jun-09 23:00N 47°38' W 122°26'2 3.3
2018-Jun-09 22:29N 47°38' W 122°23'0 0.0
2018-Jun-09 21:59N 47°38' W 122°23'0 0.0
2018-Jun-09 21:29N 47°38' W 122°23'0 0.0
2018-Jun-09 20:59N 47°38' W 122°23'0 0.0
2018-Jun-09 20:29N 47°38' W 122°23'0 0.0
2018-Jun-09 19:59N 47°38' W 122°23'0 0.0
2018-Jun-09 19:29N 47°38' W 122°23'0 0.0
2018-Jun-09 18:59N 47°38' W 122°23'0 0.0
2018-Jun-09 18:29N 47°38' W 122°23'0 0.0
2018-Jun-09 17:59N 47°38' W 122°23'0 0.0
2018-Jun-09 17:29N 47°38' W 122°23'0 0.0
2018-Jun-09 16:59N 47°38' W 122°23'  

Dump ship's entire track history